Weather reports worldwide

Advertisment
Coventry/Coundon, United Kingdom (99070): temperature & dewpoint: 15.05.2019 04:00:00 - 21.05.2019 04:00:00 (BST)Coventry/Coundon, United Kingdom (99070): temperature -20cm & temperature -100cm: 15.05.2019 04:00:00 - 21.05.2019 04:00:00 (BST)Coventry/Coundon, United Kingdom (99070): wind speed: 15.05.2019 04:00:00 - 21.05.2019 04:00:00 (BST)Coventry/Coundon, United Kingdom (99070): wind direction: 15.05.2019 04:00:00 - 21.05.2019 04:00:00 (BST)Coventry/Coundon, United Kingdom (99070): precipitation: 15.05.2019 04:00:00 - 21.05.2019 04:00:00 (BST)
Date & Time tt [°C] td [°C] tt -20cm [°C] tt -100cm [°C] ff [km/h] ff [kn] dd rr [mm]
21.05.2019 04:00:00 7,4 6,3 - - 8 4 NW 0,0
21.05.2019 03:00:00 7,9 6,0 - - 5 3 NW 0,0
21.05.2019 02:00:00 8,5 5,8 - - 5 3 WNW 0,0
21.05.2019 01:00:00 9,5 5,9 - - 8 4 NW 0,0
21.05.2019 00:00:00 10,8 6,1 - - 9 5 NW 0,0
20.05.2019 23:00:00 11,2 6,1 - - 9 5 NNW 0,0
20.05.2019 22:00:00 12,4 6,3 - - 9 5 NNW 0,0
20.05.2019 21:00:00 13,9 6,7 - - 11 6 NNW 0,0
20.05.2019 20:00:00 14,9 7,7 - - 13 7 NNW 0,0
20.05.2019 19:00:00 17,0 7,3 - - 8 4 NW 0,0
20.05.2019 18:00:00 17,3 7,3 - - 4 2 NW 0,0
20.05.2019 17:00:00 17,5 8,2 - - 8 4 NW 0,0
20.05.2019 16:00:00 16,9 8,3 - - 9 5 NW 0,0
20.05.2019 15:00:00 16,8 8,3 - - 9 5 NNW 0,0
20.05.2019 14:00:00 16,5 7,1 - - 11 6 NNW 0,0
20.05.2019 13:00:00 15,8 7,3 - - 11 6 NNW 0,0
20.05.2019 12:00:00 15,7 7,7 - - 13 7 NW 0,0
20.05.2019 11:00:00 15,2 9,1 - - 9 5 NW 0,0
20.05.2019 10:00:00 13,6 9,7 13,0 11,7 13 7 N 0,0
20.05.2019 09:00:00 11,3 8,1 - - 11 6 NW 0,0
20.05.2019 08:00:00 11,0 9,0 - - 15 8 NW 0,0
20.05.2019 07:00:00 9,4 8,3 - - 11 6 NW 0,0
20.05.2019 06:00:00 8,5 7,8 - - 13 7 NW 0,0
20.05.2019 05:00:00 8,6 7,5 - - 9 5 NW 0,0
20.05.2019 04:00:00 9,0 7,5 - - 9 5 NW 0,0
20.05.2019 03:00:00 9,8 7,7 - - 8 4 NW 0,0
20.05.2019 02:00:00 10,4 7,8 - - 9 5 NNW 0,0
20.05.2019 01:00:00 11,1 8,0 - - 11 6 NNW 0,0
20.05.2019 00:00:00 11,5 8,0 - - 11 6 NNW 0,0
19.05.2019 23:00:00 12,1 8,1 - - 11 6 NW 0,0
19.05.2019 22:00:00 13,0 8,7 - - 8 4 NW 0,0
19.05.2019 21:00:00 13,4 9,0 - - 11 6 NNW 0,0
19.05.2019 20:00:00 13,8 9,2 - - 8 4 NW 0,0
19.05.2019 19:00:00 14,1 9,3 - - 9 5 NW 0,0
19.05.2019 18:00:00 14,9 9,0 - - 9 5 NW 0,0
19.05.2019 17:00:00 15,9 8,4 - - 8 4 NNE 0,0
19.05.2019 16:00:00 16,1 9,9 - - 9 5 N 0,0
19.05.2019 15:00:00 14,6 9,3 - - 8 4 NNW 0,0
19.05.2019 14:00:00 15,5 9,1 - - 9 5 NNW 0,0
19.05.2019 13:00:00 15,8 9,1 - - 9 5 NNW 0,0
19.05.2019 12:00:00 15,5 9,9 - - 5 3 N 0,0
19.05.2019 11:00:00 14,1 8,8 - - 9 5 NW 0,0
19.05.2019 10:00:00 15,6 11,1 12,9 11,5 5 3 NE 0,0
19.05.2019 09:00:00 13,8 9,9 - - 9 5 N 0,0
19.05.2019 08:00:00 11,3 9,4 - - 8 4 NNW 0,0
19.05.2019 07:00:00 10,3 8,9 - - 2 1 NW 0,0
19.05.2019 06:00:00 9,5 8,5 - - 4 2 SE 0,0
19.05.2019 05:00:00 9,0 8,2 - - 2 1 NE 0,0
19.05.2019 04:00:00 8,7 7,7 - - 2 1 NNE 0,0
19.05.2019 03:00:00 8,8 8,0 - - 0 0 N 0,0
19.05.2019 02:00:00 8,2 7,4 - - 4 2 ENE 0,0
19.05.2019 01:00:00 8,2 7,1 - - 4 2 E 0,0
19.05.2019 00:00:00 9,3 7,8 - - 2 1 ENE 0,0
18.05.2019 23:00:00 10,0 7,5 - - 0 0 N 0,0
18.05.2019 22:00:00 11,7 7,6 - - 4 2 E 0,0
18.05.2019 21:00:00 13,3 7,9 - - 5 3 E 0,0
18.05.2019 20:00:00 14,0 8,0 - - 4 2 E 0,0
18.05.2019 19:00:00 15,0 7,5 - - 4 2 NNE 0,0
18.05.2019 18:00:00 15,1 8,7 - - 4 2 NE 0,0
18.05.2019 17:00:00 15,5 7,5 - - 8 4 N 0,0
18.05.2019 16:00:00 15,2 8,7 - - 4 2 ENE 0,0
18.05.2019 15:00:00 13,6 9,3 - - 5 3 NE 0,0
18.05.2019 14:00:00 12,7 8,5 - - 11 6 ENE 0,0
18.05.2019 13:00:00 13,7 8,0 - - 4 2 NNW 0,0
18.05.2019 12:00:00 13,2 9,1 - - 5 3 NNW 0,0
18.05.2019 11:00:00 12,8 9,0 - - 5 3 N 0,0
18.05.2019 10:00:00 11,4 9,7 12,9 11,5 5 3 NNE 0,0
18.05.2019 09:00:00 10,4 9,1 - - 11 6 NE 0,0
18.05.2019 08:00:00 10,0 9,1 - - 9 5 NE 0,0
18.05.2019 07:00:00 9,7 9,3 - - 9 5 NNE 0,0
18.05.2019 06:00:00 9,5 9,0 - - 5 3 N 0,0
18.05.2019 05:00:00 9,3 8,8 - - 8 4 N 0,2
18.05.2019 04:00:00 9,4 8,7 - - 5 3 N 0,0
18.05.2019 03:00:00 9,5 8,3 - - 9 5 NNE 0,0
18.05.2019 02:00:00 10,3 7,8 - - 9 5 NNE 0,0
18.05.2019 01:00:00 10,5 7,5 - - 11 6 NE 0,0
18.05.2019 00:00:00 11,2 6,1 - - 9 5 NE 0,0
17.05.2019 23:00:00 11,2 6,6 - - 5 3 NE 0,0
17.05.2019 22:00:00 11,5 6,6 - - 5 3 E 0,0
17.05.2019 21:00:00 12,1 6,4 - - 8 4 E 0,0
17.05.2019 20:00:00 13,1 6,2 - - 13 7 E 0,0
17.05.2019 19:00:00 13,5 5,8 - - 13 7 ENE 0,0
17.05.2019 18:00:00 13,6 5,1 - - 18 10 ENE 0,0
17.05.2019 17:00:00 14,6 6,7 - - 18 10 E 0,0
17.05.2019 16:00:00 17,3 7,3 - - 21 11 ENE 0,0
17.05.2019 15:00:00 16,4 9,8 - - 18 10 ENE 0,0
17.05.2019 14:00:00 14,3 9,8 - - 16 9 ENE 0,0
17.05.2019 13:00:00 12,5 9,7 - - 13 7 NE 0,0
17.05.2019 12:00:00 11,3 9,0 - - 18 10 NE 0,0
17.05.2019 11:00:00 10,4 8,7 - - 15 8 NE 0,0
17.05.2019 10:00:00 10,0 7,6 13,0 11,4 21 11 NE 0,0
17.05.2019 09:00:00 10,3 6,5 - - 18 10 NNE 0,0
17.05.2019 08:00:00 9,9 5,8 - - 16 9 NNE 0,0
17.05.2019 07:00:00 9,2 7,5 - - 11 6 NNE 0,0
17.05.2019 06:00:00 8,9 7,6 - - 15 8 NNE 0,0
17.05.2019 05:00:00 8,7 7,6 - - 11 6 NNE 0,4
17.05.2019 04:00:00 9,1 7,0 - - 16 9 NE 0,0
17.05.2019 03:00:00 8,6 6,5 - - 15 8 NE 0,0
17.05.2019 02:00:00 7,7 5,6 - - 13 7 NNE 0,0
17.05.2019 01:00:00 8,4 4,5 - - 13 7 NNE 0,0
17.05.2019 00:00:00 9,5 3,4 - - 15 8 NE 0,0
16.05.2019 23:00:00 10,9 3,2 - - 15 8 NE 0,0
16.05.2019 22:00:00 11,1 2,6 - - 16 9 ENE 0,0
16.05.2019 21:00:00 11,8 2,5 - - 18 10 ENE 0,0
16.05.2019 20:00:00 12,8 4,5 - - 21 11 ENE 0,0
16.05.2019 19:00:00 14,3 5,4 - - 21 11 E 0,0
16.05.2019 18:00:00 15,0 4,1 - - 21 11 E 0,0
16.05.2019 17:00:00 15,2 2,0 - - 24 13 ENE 0,0
16.05.2019 16:00:00 15,2 3,7 - - 21 11 E 0,0
16.05.2019 15:00:00 16,2 6,4 - - 21 11 E 0,0
16.05.2019 14:00:00 15,9 5,6 - - 16 9 E 0,0
16.05.2019 13:00:00 15,3 6,0 - - 18 10 ENE 0,0
16.05.2019 12:00:00 14,5 4,8 - - 16 9 E 0,0
16.05.2019 11:00:00 14,0 6,9 - - 16 9 E 0,0
16.05.2019 10:00:00 13,0 7,1 13,0 11,2 15 8 ENE 0,0
16.05.2019 09:00:00 11,6 7,4 - - 13 7 E 0,0
16.05.2019 08:00:00 9,1 6,0 - - 13 7 ENE 0,0
16.05.2019 07:00:00 7,8 5,1 - - 9 5 ENE 0,0
16.05.2019 06:00:00 5,9 3,8 - - 4 2 NE 0,0
16.05.2019 05:00:00 5,7 3,0 - - 8 4 NE 0,0
16.05.2019 04:00:00 7,0 3,1 - - 5 3 E 0,0
16.05.2019 03:00:00 8,1 4,5 - - 9 5 E 0,0
16.05.2019 02:00:00 8,6 6,1 - - 8 4 E 0,0
16.05.2019 01:00:00 9,5 6,0 - - 5 3 E 0,0
16.05.2019 00:00:00 10,1 6,4 - - 8 4 E 0,0
15.05.2019 23:00:00 10,7 5,7 - - 9 5 ENE 0,0
15.05.2019 22:00:00 12,0 6,2 - - 11 6 ENE 0,0
15.05.2019 21:00:00 13,8 7,0 - - 13 7 E 0,0
15.05.2019 20:00:00 16,1 6,9 - - 11 6 ENE 0,0
15.05.2019 19:00:00 16,7 6,4 - - 13 7 ENE 0,0
15.05.2019 18:00:00 17,1 5,7 - - 13 7 E 0,0
15.05.2019 17:00:00 17,6 4,8 - - 13 7 E 0,0
15.05.2019 16:00:00 18,0 6,7 - - 11 6 ENE 0,0
15.05.2019 15:00:00 17,8 7,0 - - 11 6 E 0,0
15.05.2019 14:00:00 17,4 7,0 - - 11 6 SE 0,0
15.05.2019 13:00:00 16,9 6,3 - - 11 6 E 0,0
15.05.2019 12:00:00 16,3 5,9 - - 11 6 ESE 0,0
15.05.2019 11:00:00 15,2 3,4 - - 9 5 ESE 0,0
15.05.2019 10:00:00 14,3 6,1 12,7 11,0 5 3 ESE 0,0
15.05.2019 09:00:00 12,7 5,2 - - 11 6 ESE 0,0
15.05.2019 08:00:00 10,6 4,1 - - 9 5 ESE 0,0
15.05.2019 07:00:00 9,0 4,1 - - 8 4 ESE 0,0
15.05.2019 06:00:00 7,0 2,9 - - 8 4 E 0,0
15.05.2019 05:00:00 6,5 2,0 - - 5 3 E 0,0
15.05.2019 04:00:00 7,4 3,3 - - 5 3 ESE 0,0

tt = temperature
td = dewpoint
tt -20cm = temperature -20cm
tt -100cm = temperature -100cm
ff = wind speed
dd = wind direction
rr = precipitation

Next stations